Time;durP1;ratioP1;P1;durP2;ratioP2;P2;SDS_P1;SDS_P2;PMS_P1;PMS_P2;Temp;Humidity;BMP_temperature;BMP_pressure;BME280_temperature;BME280_humidity;BME280_pressure;Samples;Min_cycle;Max_cycle;Signal;HPM_P1;HPM_P2
2021/04/30 00:00:27;;;;;;;6.93;6.32;;;12.60;99.90;;;;;;5063487;28;20236;-78
2021/04/30 00:02:54;;;;;;;6.38;5.78;;;12.60;99.90;;;;;;5059341;28;20217;-78
2021/04/30 00:05:20;;;;;;;5.72;5.32;;;12.60;99.90;;;;;;5062031;28;20210;-78
2021/04/30 00:07:47;;;;;;;5.15;4.75;;;12.60;99.90;;;;;;5063097;28;20194;-78
2021/04/30 00:10:13;;;;;;;6.57;5.97;;;12.60;99.90;;;;;;5061033;28;20221;-79
2021/04/30 00:12:40;;;;;;;6.63;6.10;;;12.60;99.90;;;;;;5087992;22;20600;-72
2021/04/30 00:15:08;;;;;;;6.95;6.35;;;12.60;99.90;;;;;;5083873;28;20878;-71
2021/04/30 00:17:35;;;;;;;6.90;6.38;;;12.50;99.90;;;;;;5100764;28;20197;-70
2021/04/30 00:20:02;;;;;;;9.32;8.43;;;12.50;99.90;;;;;;5103525;28;20795;-70
2021/04/30 00:22:29;;;;;;;8.18;7.50;;;12.50;99.90;;;;;;5101050;28;20201;-71
2021/04/30 00:24:55;;;;;;;8.00;7.30;;;12.50;99.90;;;;;;5099039;28;20224;-70
2021/04/30 00:27:22;;;;;;;7.10;6.53;;;12.40;99.90;;;;;;5106844;28;20197;-70
2021/04/30 00:29:48;;;;;;;7.05;6.45;;;12.40;99.90;;;;;;5105958;28;20270;-70
2021/04/30 00:32:15;;;;;;;9.23;8.43;;;12.50;99.90;;;;;;5108177;28;20348;-70
2021/04/30 00:34:43;;;;;;;8.77;8.07;;;12.50;99.90;;;;;;5105008;28;20224;-70
2021/04/30 00:37:10;;;;;;;9.90;8.98;;;12.40;99.90;;;;;;5105914;28;20196;-71
2021/04/30 00:39:37;;;;;;;9.07;8.27;;;12.40;99.90;;;;;;5104101;28;20748;-71
2021/04/30 00:42:04;;;;;;;9.82;8.90;;;12.40;99.90;;;;;;5110092;28;20202;-71
2021/04/30 00:44:31;;;;;;;10.05;9.15;;;12.40;99.90;;;;;;5103758;28;20326;-70
2021/04/30 00:46:59;;;;;;;9.25;8.45;;;12.40;99.90;;;;;;5107233;28;20262;-70
2021/04/30 00:49:26;;;;;;;8.60;7.90;;;12.40;99.90;;;;;;5099216;28;20220;-70
2021/04/30 00:51:53;;;;;;;8.18;7.47;;;12.40;99.90;;;;;;5088533;28;20214;-70
2021/04/30 00:54:20;;;;;;;9.52;8.68;;;12.40;99.90;;;;;;5100306;27;20221;-70
2021/04/30 00:56:47;;;;;;;8.60;7.80;;;12.40;99.90;;;;;;5105084;28;20645;-71
2021/04/30 00:59:13;;;;;;;9.57;8.77;;;12.40;99.90;;;;;;5110024;27;20216;-70
2021/04/30 01:01:40;;;;;;;8.80;8.00;;;12.40;99.90;;;;;;5107553;27;20193;-70
2021/04/30 01:04:08;;;;;;;9.63;8.77;;;12.40;99.90;;;;;;5110862;27;20316;-70
2021/04/30 01:06:34;;;;;;;11.27;10.27;;;12.30;99.90;;;;;;5106556;28;20196;-71
2021/04/30 01:09:03;;;;;;;10.52;9.63;;;12.30;99.90;;;;;;5105584;28;20217;-70
2021/04/30 01:11:30;;;;;;;10.07;9.18;;;12.30;99.90;;;;;;5095164;28;20222;-70
2021/04/30 01:13:58;;;;;;;10.82;9.82;;;12.30;99.90;;;;;;5091466;28;20237;-70
2021/04/30 01:16:24;;;;;;;10.77;9.88;;;12.30;99.90;;;;;;5080936;28;20195;-70
2021/04/30 01:18:51;;;;;;;9.95;9.05;;;12.30;99.90;;;;;;5083048;27;20218;-70
2021/04/30 01:21:17;;;;;;;8.23;7.63;;;12.30;99.90;;;;;;5103507;28;20687;-71
2021/04/30 01:23:49;;;;;;;7.78;7.10;;;12.30;99.90;;;;;;5104965;27;20229;-71
2021/04/30 01:26:17;;;;;;;8.68;7.97;;;12.30;99.90;;;;;;5112976;28;20193;-71
2021/04/30 01:28:44;;;;;;;8.13;7.43;;;12.40;99.90;;;;;;5104877;28;20234;-70
2021/04/30 01:31:11;;;;;;;7.43;6.82;;;12.30;99.90;;;;;;5090333;28;20194;-71
2021/04/30 01:33:38;;;;;;;7.72;7.03;;;12.30;99.90;;;;;;5092584;28;20221;-71
2021/04/30 01:36:05;;;;;;;7.55;6.95;;;12.30;99.90;;;;;;5087864;28;20247;-71
2021/04/30 01:38:32;;;;;;;7.10;6.50;;;12.30;99.90;;;;;;5094698;28;20213;-71
2021/04/30 01:41:00;;;;;;;8.27;7.57;;;12.30;99.90;;;;;;5090391;28;20204;-71
2021/04/30 01:43:27;;;;;;;8.13;7.43;;;12.30;99.90;;;;;;5087298;28;20266;-71
2021/04/30 01:45:56;;;;;;;8.55;7.85;;;12.20;99.90;;;;;;5093335;28;20217;-71
2021/04/30 01:48:24;;;;;;;7.78;7.13;;;12.20;99.90;;;;;;5095493;28;20198;-70
2021/04/30 01:50:51;;;;;;;8.00;7.30;;;12.20;99.90;;;;;;5108948;28;20221;-71
2021/04/30 01:53:20;;;;;;;8.05;7.35;;;12.20;99.90;;;;;;5109054;27;20220;-70
2021/04/30 01:55:46;;;;;;;10.10;9.18;;;12.20;99.90;;;;;;5106195;28;20213;-71
2021/04/30 01:58:16;;;;;;;10.40;9.50;;;12.20;99.90;;;;;;5108480;28;20252;-71
2021/04/30 02:00:44;;;;;;;9.65;8.75;;;12.20;99.90;;;;;;5110764;28;20213;-71
2021/04/30 02:03:11;;;;;;;10.00;9.18;;;12.20;99.90;;;;;;5102120;28;20213;-71
2021/04/30 02:05:39;;;;;;;11.20;10.20;;;12.20;99.90;;;;;;5100988;28;20227;-70
2021/04/30 02:08:06;;;;;;;11.13;10.13;;;12.20;99.90;;;;;;5109255;28;20193;-71
2021/04/30 02:10:34;;;;;;;11.88;10.88;;;12.20;99.90;;;;;;5109540;28;20212;-71
2021/04/30 02:13:01;;;;;;;10.25;9.40;;;12.20;99.90;;;;;;5105415;28;20216;-70
2021/04/30 02:15:30;;;;;;;11.80;10.80;;;12.20;99.90;;;;;;5105013;28;20209;-71
2021/04/30 02:17:57;;;;;;;10.38;9.48;;;12.20;99.90;;;;;;5111686;28;20242;-70
2021/04/30 02:20:24;;;;;;;10.05;9.15;;;12.20;99.90;;;;;;5107082;28;20293;-70
2021/04/30 02:22:52;;;;;;;10.25;9.35;;;12.20;99.90;;;;;;5110134;28;20189;-72
2021/04/30 02:25:20;;;;;;;11.25;10.15;;;12.20;99.90;;;;;;5109666;28;20592;-70
2021/04/30 02:27:47;;;;;;;9.18;8.38;;;12.20;99.90;;;;;;5103208;28;20194;-70
2021/04/30 02:30:16;;;;;;;13.00;11.80;;;12.20;99.90;;;;;;5102720;27;20274;-70
2021/04/30 02:32:45;;;;;;;10.35;9.30;;;12.20;99.90;;;;;;5105589;28;20616;-70
2021/04/30 02:35:19;;;;;;;9.50;8.70;;;12.20;99.90;;;;;;5110314;27;20220;-70
2021/04/30 02:37:46;;;;;;;8.15;7.45;;;12.30;99.90;;;;;;5107836;28;20238;-70
2021/04/30 02:40:15;;;;;;;8.30;7.60;;;12.30;99.90;;;;;;5098750;28;20214;-70
2021/04/30 02:42:42;;;;;;;7.40;6.80;;;12.30;99.90;;;;;;5088464;28;20194;-70
2021/04/30 02:45:11;;;;;;;7.82;7.18;;;12.30;99.90;;;;;;5100874;28;20813;-70
2021/04/30 02:47:40;;;;;;;8.25;7.55;;;12.30;99.90;;;;;;5110594;28;20246;-70
2021/04/30 02:50:08;;;;;;;7.47;6.88;;;12.30;99.90;;;;;;5110621;28;20666;-70
2021/04/30 02:52:35;;;;;;;7.40;6.80;;;12.30;99.90;;;;;;5104539;28;20213;-70
2021/04/30 02:55:02;;;;;;;7.07;6.47;;;12.40;99.90;;;;;;5107561;27;20861;-70
2021/04/30 02:57:32;;;;;;;8.13;7.43;;;12.30;99.90;;;;;;5103933;28;20193;-70
2021/04/30 02:59:58;;;;;;;7.63;6.93;;;12.30;99.90;;;;;;5107540;28;20601;-70
2021/04/30 03:02:25;;;;;;;9.73;8.82;;;12.30;99.90;;;;;;5109168;27;20196;-70
2021/04/30 03:04:51;;;;;;;8.10;7.40;;;12.30;99.90;;;;;;5094400;28;20220;-70
2021/04/30 03:07:19;;;;;;;7.35;6.75;;;12.30;99.90;;;;;;5086374;28;20194;-70
2021/04/30 03:09:46;;;;;;;7.53;6.93;;;12.30;99.90;;;;;;5089756;28;20225;-70
2021/04/30 03:12:12;;;;;;;7.63;7.03;;;12.40;99.90;;;;;;5089102;28;20684;-70
2021/04/30 03:14:39;;;;;;;7.30;6.70;;;12.40;99.90;;;;;;5094237;28;20227;-70
2021/04/30 03:17:05;;;;;;;7.82;7.13;;;12.40;99.90;;;;;;5108263;28;20201;-70
2021/04/30 03:19:32;;;;;;;7.70;7.00;;;12.30;99.90;;;;;;5105906;28;20721;-70
2021/04/30 03:21:59;;;;;;;7.25;6.65;;;12.40;99.90;;;;;;5107411;28;20197;-70
2021/04/30 03:24:26;;;;;;;7.97;7.38;;;12.40;99.90;;;;;;5106342;28;20224;-73
2021/04/30 03:26:53;;;;;;;9.00;8.20;;;12.40;99.90;;;;;;5109524;28;20201;-70
2021/04/30 03:29:20;;;;;;;9.70;8.90;;;12.40;99.90;;;;;;5096118;28;20275;-70
2021/04/30 03:31:47;;;;;;;16.30;10.38;;;12.40;99.90;;;;;;5085058;28;20213;-70
2021/04/30 03:34:13;;;;;;;10.05;9.15;;;12.40;99.90;;;;;;5087341;27;20690;-70
2021/04/30 03:36:40;;;;;;;21.80;8.45;;;12.40;99.90;;;;;;5100298;28;20663;-70
2021/04/30 03:39:07;;;;;;;9.32;8.52;;;12.40;99.90;;;;;;5104309;28;20224;-70
2021/04/30 03:41:35;;;;;;;9.25;8.45;;;12.40;99.90;;;;;;5100645;28;20222;-70
2021/04/30 03:44:02;;;;;;;9.68;8.88;;;12.30;99.90;;;;;;5103747;28;20278;-70
2021/04/30 03:46:29;;;;;;;9.68;8.85;;;12.30;99.90;;;;;;5106304;27;20663;-70
2021/04/30 03:48:55;;;;;;;9.45;8.65;;;12.20;99.90;;;;;;5102228;27;20460;-70
2021/04/30 03:51:22;;;;;;;8.98;8.27;;;12.30;99.90;;;;;;5101668;27;20197;-70
2021/04/30 03:53:48;;;;;;;9.68;8.88;;;12.20;99.90;;;;;;5101254;28;20221;-71
2021/04/30 03:56:15;;;;;;;8.30;7.60;;;12.20;99.90;;;;;;5108653;28;20193;-70
2021/04/30 03:58:43;;;;;;;7.50;6.88;;;12.20;99.90;;;;;;5100649;27;20298;-70
2021/04/30 04:01:09;;;;;;;11.90;10.77;;;12.30;99.90;;;;;;5101889;28;20221;-70
2021/04/30 04:03:36;;;;;;;10.02;9.02;;;12.20;99.90;;;;;;5104566;27;20204;-70
2021/04/30 04:06:03;;;;;;;9.05;8.35;;;12.20;99.90;;;;;;5100099;28;20222;-70
2021/04/30 04:08:31;;;;;;;8.40;7.70;;;12.20;99.90;;;;;;5104069;28;20734;-70
2021/04/30 04:10:57;;;;;;;8.45;7.75;;;12.20;99.90;;;;;;5098539;28;20213;-70
2021/04/30 04:13:25;;;;;;;7.45;6.85;;;12.30;99.90;;;;;;5101078;28;20228;-70
2021/04/30 04:15:53;;;;;;;7.40;6.80;;;12.30;99.90;;;;;;5105723;28;20212;-70
2021/04/30 04:18:21;;;;;;;7.97;7.28;;;12.30;99.90;;;;;;5105105;28;20571;-70
2021/04/30 04:20:47;;;;;;;8.13;7.43;;;12.30;99.90;;;;;;5103796;28;20353;-70
2021/04/30 04:23:14;;;;;;;8.73;7.97;;;12.30;99.90;;;;;;5105921;28;20209;-70
2021/04/30 04:25:41;;;;;;;8.65;7.95;;;12.30;99.90;;;;;;5103279;27;20209;-70
2021/04/30 04:28:08;;;;;;;9.15;8.35;;;12.30;99.90;;;;;;5101879;28;20224;-70
2021/04/30 04:30:35;;;;;;;8.32;7.57;;;12.30;99.90;;;;;;5100716;28;20219;-70
2021/04/30 04:33:04;;;;;;;8.38;7.60;;;12.30;99.90;;;;;;5098544;28;20277;-70
2021/04/30 04:35:30;;;;;;;7.93;7.22;;;12.40;99.90;;;;;;5104244;28;20781;-70
2021/04/30 04:37:57;;;;;;;8.88;8.18;;;12.40;99.90;;;;;;5100241;28;20190;-70
2021/04/30 04:40:25;;;;;;;7.85;7.18;;;12.40;99.90;;;;;;5100282;28;20221;-70
2021/04/30 04:42:52;;;;;;;8.65;7.95;;;12.40;99.90;;;;;;5109936;28;20246;-70
2021/04/30 04:45:20;;;;;;;10.93;8.48;;;12.40;99.90;;;;;;5097507;28;20212;-70
2021/04/30 04:47:47;;;;;;;15.60;8.15;;;12.40;99.90;;;;;;5107063;28;20218;-70
2021/04/30 04:50:15;;;;;;;27.73;8.75;;;12.40;99.90;;;;;;5097397;28;20223;-70
2021/04/30 04:52:42;;;;;;;8.50;7.70;;;12.40;99.90;;;;;;5103453;28;20219;-70
2021/04/30 04:55:11;;;;;;;48.25;7.80;;;12.40;99.90;;;;;;5104781;28;20216;-70
2021/04/30 04:57:38;;;;;;;8.50;7.80;;;12.40;99.90;;;;;;5100980;28;20197;-70
2021/04/30 05:00:07;;;;;;;8.55;7.57;;;12.40;99.90;;;;;;5105676;28;20216;-70
2021/04/30 05:02:34;;;;;;;8.00;7.30;;;12.40;99.90;;;;;;5096568;28;20703;-70
2021/04/30 05:05:00;;;;;;;7.70;7.00;;;12.40;99.90;;;;;;5099864;28;20476;-70
2021/04/30 05:07:28;;;;;;;37.65;9.10;;;12.40;99.90;;;;;;5102566;28;20192;-70
2021/04/30 05:09:55;;;;;;;9.35;8.45;;;12.40;99.90;;;;;;5104635;28;20270;-70
2021/04/30 05:12:21;;;;;;;9.10;8.40;;;12.40;99.90;;;;;;5096756;28;20212;-70
2021/04/30 05:14:48;;;;;;;10.95;9.95;;;12.50;99.90;;;;;;5097072;28;20221;-70
2021/04/30 05:17:14;;;;;;;8.98;8.18;;;12.50;99.90;;;;;;5103307;28;20270;-70
2021/04/30 05:19:41;;;;;;;8.75;7.95;;;12.40;99.90;;;;;;5102387;28;20229;-70
2021/04/30 05:22:10;;;;;;;7.95;7.25;;;12.40;99.90;;;;;;5104656;28;20613;-70
2021/04/30 05:24:38;;;;;;;7.20;6.60;;;12.40;99.90;;;;;;5097904;28;20221;-71
2021/04/30 05:27:06;;;;;;;7.35;6.75;;;12.40;99.90;;;;;;5072313;28;20200;-70
2021/04/30 05:29:34;;;;;;;43.53;8.02;;;12.50;99.90;;;;;;5073895;28;20226;-71
2021/04/30 05:32:01;;;;;;;6.57;6.00;;;12.50;99.90;;;;;;5073312;28;21676;-71
2021/04/30 05:34:27;;;;;;;8.40;7.70;;;12.60;99.90;;;;;;5076939;28;20222;-70
2021/04/30 05:36:54;;;;;;;35.08;8.90;;;12.60;99.90;;;;;;5097187;28;20209;-70
2021/04/30 05:39:20;;;;;;;8.18;7.47;;;12.60;99.90;;;;;;5098287;28;20227;-70
2021/04/30 05:41:48;;;;;;;7.88;7.28;;;12.60;99.90;;;;;;5100049;28;20212;-70
2021/04/30 05:44:15;;;;;;;7.85;7.25;;;12.50;99.90;;;;;;5095899;28;20223;-70
2021/04/30 05:46:41;;;;;;;8.15;7.45;;;12.50;99.90;;;;;;5103827;28;20196;-70
2021/04/30 05:49:08;;;;;;;8.68;7.93;;;12.50;99.90;;;;;;5090579;28;20201;-71
2021/04/30 05:51:34;;;;;;;9.35;8.55;;;12.50;99.90;;;;;;5098332;28;20595;-71
2021/04/30 05:54:01;;;;;;;10.57;9.68;;;12.50;99.90;;;;;;5094002;28;20523;-70
2021/04/30 05:56:28;;;;;;;10.35;9.27;;;12.40;99.90;;;;;;5096755;28;20212;-70
2021/04/30 05:58:56;;;;;;;12.77;10.25;;;12.40;99.90;;;;;;5096916;28;20351;-71
2021/04/30 06:01:22;;;;;;;10.35;9.45;;;12.40;99.90;;;;;;5094649;28;20232;-71
2021/04/30 06:03:49;;;;;;;9.60;8.75;;;12.40;99.90;;;;;;5094680;27;20513;-71
2021/04/30 06:06:16;;;;;;;11.25;10.32;;;12.50;99.90;;;;;;5095452;27;20221;-71
2021/04/30 06:08:42;;;;;;;15.00;13.63;;;12.50;99.90;;;;;;5098535;28;20270;-71
2021/04/30 06:11:09;;;;;;;12.60;11.50;;;12.50;99.90;;;;;;5082398;28;20222;-70
2021/04/30 06:13:36;;;;;;;12.32;11.23;;;12.50;99.90;;;;;;5079701;28;20639;-70
2021/04/30 06:16:04;;;;;;;12.23;11.23;;;12.40;99.90;;;;;;5093259;28;20317;-70
2021/04/30 06:18:30;;;;;;;11.55;10.55;;;12.40;99.90;;;;;;5097066;28;20189;-70
2021/04/30 06:20:57;;;;;;;11.20;10.30;;;12.40;99.90;;;;;;5094102;27;20544;-70
2021/04/30 06:23:24;;;;;;;12.55;11.45;;;12.40;99.90;;;;;;5093085;27;20269;-71
2021/04/30 06:25:50;;;;;;;12.32;11.25;;;12.40;99.90;;;;;;5096700;27;20351;-70
2021/04/30 06:28:17;;;;;;;12.65;11.45;;;12.40;99.90;;;;;;5096351;27;20197;-71
2021/04/30 06:30:44;;;;;;;11.00;10.10;;;12.40;99.90;;;;;;5097146;27;20208;-71
2021/04/30 06:33:11;;;;;;;10.40;9.50;;;12.40;99.90;;;;;;5090732;28;20229;-71
2021/04/30 06:35:38;;;;;;;9.25;8.50;;;12.40;99.90;;;;;;5092409;28;20216;-70
2021/04/30 06:38:05;;;;;;;8.93;8.13;;;12.50;99.90;;;;;;5088104;28;20660;-70
2021/04/30 06:40:32;;;;;;;8.63;7.82;;;12.50;99.90;;;;;;5084061;28;20222;-71
2021/04/30 06:42:59;;;;;;;9.80;8.95;;;12.60;99.90;;;;;;5076927;28;20775;-70
2021/04/30 06:45:26;;;;;;;8.43;7.72;;;12.70;99.90;;;;;;5078002;28;20225;-71
2021/04/30 06:47:52;;;;;;;8.82;8.10;;;12.70;99.90;;;;;;5079562;28;20190;-71
2021/04/30 06:50:20;;;;;;;7.90;7.15;;;12.70;99.90;;;;;;5085538;27;20269;-71
2021/04/30 06:52:46;;;;;;;7.90;7.10;;;12.80;99.90;;;;;;5097594;27;20222;-74
2021/04/30 06:55:13;;;;;;;7.35;6.75;;;12.80;99.90;;;;;;5093860;28;20713;-71
2021/04/30 06:57:40;;;;;;;8.77;8.07;;;12.80;99.90;;;;;;5095016;27;20213;-71
2021/04/30 07:00:08;;;;;;;9.95;9.05;;;12.80;99.90;;;;;;5099451;27;20462;-71
2021/04/30 07:02:34;;;;;;;8.98;8.18;;;12.80;99.90;;;;;;5095614;27;20189;-70
2021/04/30 07:05:02;;;;;;;11.10;9.90;;;12.80;99.90;;;;;;5100940;27;20281;-69
2021/04/30 07:07:29;;;;;;;9.35;8.45;;;12.90;99.90;;;;;;5098507;27;20631;-70
2021/04/30 07:09:56;;;;;;;9.15;8.43;;;12.90;99.90;;;;;;5093414;27;20232;-70
2021/04/30 07:12:23;;;;;;;9.32;8.52;;;13.00;99.90;;;;;;5095313;27;20591;-71
2021/04/30 07:14:49;;;;;;;9.45;8.60;;;13.00;99.90;;;;;;5093850;28;20222;-71
2021/04/30 07:17:16;;;;;;;8.40;7.70;;;13.00;99.90;;;;;;5090314;28;20201;-70
2021/04/30 07:19:42;;;;;;;9.73;8.82;;;12.90;99.90;;;;;;5091571;27;20225;-71
2021/04/30 07:22:10;;;;;;;8.85;8.05;;;12.90;99.90;;;;;;5096942;28;20193;-70
2021/04/30 07:24:38;;;;;;;8.98;8.25;;;12.90;99.90;;;;;;5091316;27;20760;-70
2021/04/30 07:27:05;;;;;;;9.40;8.60;;;12.90;99.90;;;;;;5093391;27;20677;-70
2021/04/30 07:29:31;;;;;;;7.80;7.20;;;13.00;99.90;;;;;;5092605;27;20197;-70
2021/04/30 07:31:59;;;;;;;8.98;8.27;;;13.00;99.90;;;;;;5096739;28;20189;-70
2021/04/30 07:34:26;;;;;;;9.40;8.60;;;13.00;99.90;;;;;;5098013;28;20423;-71
2021/04/30 07:36:52;;;;;;;9.60;8.70;;;13.00;99.90;;;;;;5092922;28;20255;-70
2021/04/30 07:39:19;;;;;;;8.70;8.00;;;13.10;99.90;;;;;;5099051;28;20552;-70
2021/04/30 07:41:47;;;;;;;7.35;6.75;;;13.10;99.90;;;;;;5095257;28;20226;-69
2021/04/30 07:44:13;;;;;;;7.90;7.30;;;13.20;99.90;;;;;;5096665;28;20227;-70
2021/04/30 07:46:40;;;;;;;8.43;7.80;;;13.30;99.90;;;;;;5096335;28;20225;-71
2021/04/30 07:49:06;;;;;;;8.85;8.15;;;13.30;99.90;;;;;;5094597;28;20213;-70
2021/04/30 07:51:33;;;;;;;9.93;9.07;;;13.40;99.90;;;;;;5099913;28;20225;-70
2021/04/30 07:54:00;;;;;;;9.40;8.57;;;13.40;99.90;;;;;;5095703;28;20698;-71
2021/04/30 07:56:26;;;;;;;9.18;8.38;;;13.50;99.90;;;;;;5094728;27;20627;-70
2021/04/30 07:58:54;;;;;;;8.32;7.65;;;13.40;99.90;;;;;;5093914;28;20201;-71
2021/04/30 08:01:20;;;;;;;8.18;7.47;;;13.40;99.90;;;;;;5095885;28;20232;-71
2021/04/30 08:03:47;;;;;;;7.90;7.20;;;13.50;99.90;;;;;;5099782;27;20228;-71
2021/04/30 08:06:13;;;;;;;8.18;7.47;;;13.50;99.90;;;;;;5096054;28;20220;-70
2021/04/30 08:08:40;;;;;;;7.22;6.72;;;13.90;99.90;;;;;;5095091;28;20277;-70
2021/04/30 08:11:07;;;;;;;7.85;7.13;;;14.40;99.90;;;;;;5096476;28;20303;-70
2021/04/30 08:13:35;;;;;;;7.85;7.25;;;15.20;99.90;;;;;;5099223;28;20436;-70
2021/04/30 08:16:02;;;;;;;6.25;5.85;;;15.70;99.90;;;;;;5089769;28;20225;-70
2021/04/30 08:18:29;;;;;;;7.35;6.75;;;16.10;99.90;;;;;;5094597;28;20663;-71
2021/04/30 08:20:56;;;;;;;6.90;6.30;;;15.90;99.90;;;;;;5092123;28;20697;-71
2021/04/30 08:23:22;;;;;;;7.40;6.80;;;15.50;99.90;;;;;;5097131;28;20224;-70
2021/04/30 08:25:49;;;;;;;7.15;6.55;;;15.30;99.90;;;;;;5095860;28;20217;-71
2021/04/30 08:28:15;;;;;;;5.50;5.10;;;15.10;99.90;;;;;;5096661;28;20201;-70
2021/04/30 08:30:42;;;;;;;5.97;5.57;;;15.10;99.90;;;;;;5094938;28;20325;-70
2021/04/30 08:33:10;;;;;;;6.88;6.38;;;15.30;99.90;;;;;;5096719;28;20209;-70
2021/04/30 08:35:36;;;;;;;6.40;5.90;;;15.60;99.90;;;;;;5099169;28;20258;-70
2021/04/30 08:38:04;;;;;;;9.20;7.25;;;16.10;99.90;;;;;;5093414;28;20193;-70
2021/04/30 08:40:31;;;;;;;7.13;6.53;;;16.70;99.90;;;;;;5094055;28;20224;-71
2021/04/30 08:42:58;;;;;;;6.50;6.00;;;17.00;99.90;;;;;;5096022;28;20209;-70
2021/04/30 08:45:27;;;;;;;6.68;6.03;;;17.30;99.90;;;;;;5096385;28;20790;-70
2021/04/30 08:47:55;;;;;;;6.70;6.20;;;17.80;99.90;;;;;;5091562;28;20193;-70
2021/04/30 08:50:23;;;;;;;6.15;5.55;;;18.10;99.90;;;;;;5094588;28;20608;-70
2021/04/30 08:52:49;;;;;;;8.00;6.78;;;17.80;99.90;;;;;;5092062;28;20700;-70
2021/04/30 08:55:17;;;;;;;7.82;6.78;;;17.70;99.90;;;;;;5096006;28;20216;-70
2021/04/30 08:57:45;;;;;;;7.72;7.07;;;17.50;99.90;;;;;;5091255;28;20292;-71
2021/04/30 09:00:14;;;;;;;7.65;7.05;;;17.10;99.90;;;;;;5099051;28;20235;-70
2021/04/30 09:02:41;;;;;;;6.70;6.20;;;16.80;99.90;;;;;;5093466;28;20531;-70
2021/04/30 09:05:10;;;;;;;7.07;6.55;;;16.60;99.90;;;;;;5094465;28;20243;-70
2021/04/30 09:07:41;;;;;;;7.38;6.78;;;16.50;99.90;;;;;;5092598;28;20618;-70
2021/04/30 09:10:11;;;;;;;7.93;7.32;;;16.50;99.90;;;;;;5095232;28;20224;-71
2021/04/30 09:12:38;;;;;;;7.22;6.63;;;16.60;99.90;;;;;;5095433;28;20605;-71
2021/04/30 09:15:08;;;;;;;7.53;6.93;;;16.90;99.90;;;;;;5099487;27;20823;-71
2021/04/30 09:17:36;;;;;;;6.63;6.13;;;17.00;99.90;;;;;;5104830;27;20189;-73
2021/04/30 09:20:04;;;;;;;8.18;7.47;;;17.30;99.90;;;;;;5108198;27;20205;-74
2021/04/30 09:22:34;;;;;;;8.32;7.70;;;17.30;99.90;;;;;;5111326;27;20193;-73
2021/04/30 09:25:05;;;;;;;7.50;6.90;;;17.50;99.90;;;;;;5101284;27;20295;-72
2021/04/30 09:27:34;;;;;;;8.77;8.00;;;17.60;99.90;;;;;;5103704;28;20205;-72
2021/04/30 09:30:22;;;;;;;7.65;7.05;;;17.50;99.90;;;;;;5104946;27;20238;-72
2021/04/30 09:33:04;;;;;;;6.75;6.15;;;17.30;99.90;;;;;;5108566;27;20212;-73
2021/04/30 09:35:31;;;;;;;6.82;6.25;;;17.20;99.90;;;;;;5106557;28;20231;-72
2021/04/30 09:37:58;;;;;;;5.65;5.20;;;17.10;99.90;;;;;;5104092;28;20739;-72
2021/04/30 09:40:27;;;;;;;6.65;6.15;;;17.10;99.90;;;;;;5102539;27;20225;-72
2021/04/30 09:43:04;;;;;;;7.40;6.80;;;17.50;99.90;;;;;;5093002;27;20197;-73
2021/04/30 09:45:30;;;;;;;7.45;6.85;;;18.30;99.90;;;;;;5109781;27;20277;-74
2021/04/30 09:47:59;;;;;;;5.35;4.95;;;18.90;99.90;;;;;;5116848;27;20203;-74
2021/04/30 09:50:27;;;;;;;4.53;4.13;;;19.10;99.90;;;;;;5110891;28;20284;-73
2021/04/30 09:52:54;;;;;;;4.22;3.88;;;19.10;99.90;;;;;;5107074;27;20244;-73
2021/04/30 09:55:22;;;;;;;3.95;3.65;;;19.20;99.90;;;;;;5111017;27;20302;-74
2021/04/30 09:57:50;;;;;;;4.20;3.90;;;19.40;99.90;;;;;;5113454;28;20197;-74
2021/04/30 10:00:17;;;;;;;4.20;3.90;;;19.50;99.90;;;;;;5109658;27;20255;-73
2021/04/30 10:02:46;;;;;;;5.13;4.72;;;19.80;99.90;;;;;;5105199;27;20192;-74
2021/04/30 10:05:14;;;;;;;5.03;4.63;;;20.20;99.90;;;;;;5111307;27;20200;-74
2021/04/30 10:07:42;;;;;;;5.28;4.78;;;20.20;99.90;;;;;;5107230;28;20300;-76
2021/04/30 10:10:11;;;;;;;5.55;4.97;;;20.30;99.90;;;;;;5108826;28;20198;-75
2021/04/30 10:12:39;;;;;;;4.70;4.40;;;20.10;99.90;;;;;;5108537;28;20217;-73
2021/04/30 10:15:09;;;;;;;5.07;4.65;;;20.30;99.90;;;;;;5107752;28;20250;-73
2021/04/30 10:17:36;;;;;;;5.15;4.75;;;20.10;99.90;;;;;;5106749;28;20221;-73
2021/04/30 10:20:04;;;;;;;4.30;3.92;;;20.10;99.90;;;;;;5104693;27;20200;-73
2021/04/30 10:22:33;;;;;;;4.38;4.07;;;19.70;99.90;;;;;;5111193;27;20697;-73
2021/04/30 10:25:01;;;;;;;4.07;3.78;;;19.30;99.90;;;;;;5103497;27;20213;-73
2021/04/30 10:27:29;;;;;;;3.42;3.22;;;19.20;99.90;;;;;;5112583;27;20217;-73
2021/04/30 10:30:08;;;;;;;2.88;2.67;;;19.30;99.90;;;;;;5110861;27;20198;-74
2021/04/30 10:32:40;;;;;;;2.10;1.90;;;19.40;99.90;;;;;;5105460;28;20212;-73
2021/04/30 10:35:11;;;;;;;1.52;1.42;;;19.80;99.90;;;;;;5111927;28;20246;-74
2021/04/30 10:37:42;;;;;;;1.70;1.60;;;19.80;99.90;;;;;;5115965;27;20289;-75
2021/04/30 10:40:12;;;;;;;1.50;1.40;;;19.80;99.90;;;;;;5113683;28;20276;-74
2021/04/30 10:42:43;;;;;;;1.52;1.42;;;20.10;99.90;;;;;;5100099;28;20213;-71
2021/04/30 10:45:13;;;;;;;1.52;1.42;;;20.20;99.90;;;;;;5105404;28;20201;-74
2021/04/30 10:47:42;;;;;;;1.30;1.30;;;19.50;99.90;;;;;;5103346;28;20300;-72
2021/04/30 10:50:20;;;;;;;1.42;1.33;;;19.20;99.90;;;;;;5097128;28;20242;-71
2021/04/30 10:52:47;;;;;;;1.85;1.48;;;18.90;99.90;;;;;;5093407;28;20209;-71
2021/04/30 10:55:17;;;;;;;1.40;1.30;;;18.70;99.90;;;;;;5097688;27;20220;-72
2021/04/30 10:57:49;;;;;;;1.20;1.10;;;18.60;99.90;;;;;;5097146;27;20646;-72
2021/04/30 11:00:16;;;;;;;1.45;1.35;;;18.50;99.90;;;;;;5099579;28;20207;-72
2021/04/30 11:02:44;;;;;;;1.48;1.38;;;18.60;99.90;;;;;;5092927;27;20209;-71
2021/04/30 11:05:16;;;;;;;2.80;1.30;;;18.80;99.90;;;;;;5096376;27;20216;-72
2021/04/30 11:07:46;;;;;;;1.77;1.30;;;18.90;99.90;;;;;;5093065;27;20251;-71
2021/04/30 11:10:41;;;;;;;1.13;1.13;;;18.90;99.90;;;;;;5098160;27;20265;-71
2021/04/30 11:13:16;;;;;;;1.30;1.20;;;18.90;99.90;;;;;;5094166;28;20623;-71
2021/04/30 11:16:01;;;;;;;1.10;1.10;;;18.90;99.90;;;;;;5099980;27;20245;-71
2021/04/30 11:18:30;;;;;;;1.30;1.20;;;18.90;99.90;;;;;;5097617;27;20213;-71
2021/04/30 11:21:00;;;;;;;1.20;1.10;;;19.00;99.90;;;;;;5099109;27;20237;-71
2021/04/30 11:23:28;;;;;;;1.15;1.02;;;19.10;99.90;;;;;;5096160;27;20591;-71
2021/04/30 11:26:06;;;;;;;0.90;0.90;;;18.90;99.90;;;;;;5098354;27;20204;-71
2021/04/30 11:29:09;;;;;;;1.15;1.08;;;19.00;99.90;;;;;;5095625;27;20840;-71
2021/04/30 11:31:37;;;;;;;1.35;1.20;;;18.90;99.90;;;;;;5088988;28;20244;-71
2021/04/30 11:34:21;;;;;;;1.20;1.10;;;18.80;99.90;;;;;;5097505;27;20287;-70
2021/04/30 11:36:55;;;;;;;2.45;1.20;;;18.80;99.90;;;;;;5104499;27;20238;-74
2021/04/30 11:39:24;;;;;;;2.22;1.20;;;18.70;99.90;;;;;;5110132;27;20253;-75
2021/04/30 11:41:55;;;;;;;1.27;1.20;;;18.60;99.90;;;;;;5108370;27;20216;-73
2021/04/30 11:44:23;;;;;;;1.73;1.40;;;18.30;99.90;;;;;;5108658;27;20209;-73
2021/04/30 11:46:59;;;;;;;2.08;1.30;;;17.90;99.90;;;;;;5104129;28;20246;-73
2021/04/30 11:49:27;;;;;;;1.38;1.27;;;17.50;99.90;;;;;;5107589;27;20208;-73
2021/04/30 11:51:53;;;;;;;1.73;1.13;;;17.40;99.90;;;;;;5103530;27;20216;-72
2021/04/30 11:54:25;;;;;;;1.60;1.50;;;17.40;99.90;;;;;;5103182;27;20227;-72
2021/04/30 11:56:58;;;;;;;1.40;1.30;;;17.60;99.90;;;;;;5106446;27;20246;-73
2021/04/30 11:59:24;;;;;;;1.13;1.13;;;17.80;99.90;;;;;;5112846;27;20412;-73
2021/04/30 12:01:56;;;;;;;1.70;1.40;;;18.00;99.90;;;;;;5107886;28;20309;-73
2021/04/30 12:04:42;;;;;;;1.70;1.40;;;18.00;99.90;;;;;;5115252;27;20220;-74
2021/04/30 12:07:10;;;;;;;1.80;1.33;;;18.10;99.90;;;;;;5102818;28;20217;-74
2021/04/30 12:09:37;;;;;;;2.22;1.50;;;18.50;99.90;;;;;;5109452;27;20280;-73
2021/04/30 12:12:15;;;;;;;1.92;1.30;;;18.90;99.90;;;;;;5104045;28;20234;-73
2021/04/30 12:14:46;;;;;;;1.42;1.33;;;19.10;99.90;;;;;;5086209;22;20233;-78
2021/04/30 12:17:20;;;;;;;1.50;1.40;;;19.20;99.90;;;;;;5049312;28;20226;-78
2021/04/30 12:20:03;;;;;;;1.58;1.23;;;19.00;99.90;;;;;;5067075;28;20198;-78
2021/04/30 12:22:30;;;;;;;2.78;1.80;;;19.10;99.90;;;;;;5049885;28;20234;-77
2021/04/30 12:25:39;;;;;;;1.60;1.48;;;19.40;99.90;;;;;;5049470;28;20219;-79
2021/04/30 12:28:27;;;;;;;0.90;0.90;;;19.70;99.90;;;;;;5058750;28;20225;-79
2021/04/30 12:31:05;;;;;;;1.13;1.02;;;19.80;99.90;;;;;;5068602;28;20561;-79
2021/04/30 12:33:34;;;;;;;1.08;0.98;;;19.60;99.90;;;;;;5070258;28;20224;-78
2021/04/30 12:36:06;;;;;;;1.52;1.30;;;19.60;99.90;;;;;;5064359;28;20212;-76
2021/04/30 12:38:33;;;;;;;1.33;1.23;;;19.70;99.90;;;;;;5072038;28;20225;-77
2021/04/30 12:41:08;;;;;;;1.77;1.55;;;19.70;99.90;;;;;;5073727;28;20198;-77
2021/04/30 12:43:37;;;;;;;1.90;1.33;;;19.90;99.90;;;;;;5066399;28;21088;-76
2021/04/30 12:46:12;;;;;;;1.13;1.10;;;20.00;99.90;;;;;;5064435;28;20656;-76
2021/04/30 12:48:42;;;;;;;2.08;1.52;;;20.20;99.90;;;;;;5069937;28;20221;-76
2021/04/30 12:51:10;;;;;;;3.38;1.60;;;20.40;99.90;;;;;;5073257;28;20732;-76